createdAt,value
2023-04-10T00:00:34.582Z,16.90
2023-04-10T00:05:39.781Z,17.43
2023-04-10T00:10:47.709Z,16.87
2023-04-10T00:15:52.758Z,18.33
2023-04-10T00:20:58.110Z,17.60
2023-04-10T00:26:07.295Z,16.43
2023-04-10T00:31:12.548Z,17.17
2023-04-10T00:36:17.997Z,17.13
2023-04-10T00:41:26.016Z,16.63
2023-04-10T00:46:31.729Z,16.80
2023-04-10T00:51:37.126Z,16.67
2023-04-10T00:56:45.297Z,15.87
2023-04-10T01:01:51.082Z,15.93
2023-04-10T01:07:02.613Z,15.90
2023-04-10T01:12:19.597Z,16.63
2023-04-10T01:17:34.186Z,16.87
2023-04-10T01:22:45.061Z,17.93
2023-04-10T01:28:13.443Z,16.90
2023-04-10T01:33:25.855Z,17.10
2023-04-10T01:38:34.210Z,18.27
2023-04-10T01:43:45.102Z,14.53
2023-04-10T01:48:55.609Z,15.93
2023-04-10T01:54:01.744Z,17.03
2023-04-10T01:59:07.914Z,18.50
2023-04-10T02:04:15.982Z,17.53
2023-04-10T02:09:31.868Z,18.63
2023-04-10T02:14:42.023Z,17.83
2023-04-10T02:19:51.084Z,18.03
2023-04-10T02:24:56.938Z,19.37
2023-04-10T02:30:03.507Z,18.77
2023-04-10T02:35:15.998Z,17.03
2023-04-10T02:40:22.772Z,17.60
2023-04-10T02:45:46.765Z,16.03
2023-04-10T02:51:02.383Z,17.33
2023-04-10T02:56:11.933Z,18.37
2023-04-10T03:01:17.517Z,17.73
2023-04-10T03:06:30.227Z,16.87
2023-04-10T03:11:36.668Z,19.77
2023-04-10T03:16:42.285Z,19.40
2023-04-10T03:21:50.881Z,21.73
2023-04-10T03:26:57.239Z,21.27
2023-04-10T03:32:04.480Z,19.30
2023-04-10T03:37:12.593Z,18.77
2023-04-10T03:42:19.239Z,18.63
2023-04-10T03:47:28.039Z,20.83
2023-04-10T03:52:36.048Z,21.17
2023-04-10T03:57:42.452Z,21.47
2023-04-10T04:02:52.972Z,22.10
2023-04-10T04:08:24.185Z,23.43
2023-04-10T04:13:48.192Z,22.50
2023-04-10T04:19:06.589Z,23.33
2023-04-10T04:24:22.250Z,22.87
2023-04-10T04:29:41.862Z,24.80
2023-04-10T04:35:16.425Z,22.30
2023-04-10T04:40:47.791Z,21.00
2023-04-10T04:46:19.474Z,22.93
2023-04-10T04:51:43.236Z,22.77
2023-04-10T04:57:05.296Z,20.87
2023-04-10T05:02:43.267Z,20.87
2023-04-10T05:08:07.591Z,20.00
2023-04-10T05:13:28.439Z,17.97
2023-04-10T05:18:50.652Z,18.10
2023-04-10T05:24:14.284Z,17.53
2023-04-10T05:29:51.075Z,18.23
2023-04-10T05:35:14.993Z,18.83
2023-04-10T05:40:43.506Z,18.30
2023-04-10T05:46:23.903Z,18.13
2023-04-10T05:51:42.761Z,18.37
2023-04-10T05:57:02.018Z,18.03
2023-04-10T06:02:27.814Z,18.70
2023-04-10T06:07:34.169Z,18.17
2023-04-10T06:12:39.444Z,18.63
2023-04-10T06:17:50.764Z,18.60
2023-04-10T06:22:56.690Z,17.43
2023-04-10T06:28:01.924Z,18.97
2023-04-10T06:33:10.016Z,18.50
2023-04-10T06:38:22.462Z,19.07
2023-04-10T06:43:30.901Z,18.30
2023-04-10T06:48:39.033Z,19.43
2023-04-10T06:53:44.211Z,18.00
2023-04-10T06:58:49.548Z,17.90
2023-04-10T07:03:57.351Z,18.30
2023-04-10T07:09:03.687Z,18.43
2023-04-10T07:14:11.626Z,18.83
2023-04-10T07:19:19.471Z,19.13
2023-04-10T07:24:24.773Z,16.43
2023-04-10T07:29:29.999Z,18.13
2023-04-10T07:34:37.924Z,18.20
2023-04-10T07:39:45.617Z,18.03
2023-04-10T07:44:50.721Z,17.97
2023-04-10T07:50:01.094Z,18.03
2023-04-10T07:55:08.017Z,17.73
2023-04-10T08:00:14.650Z,16.87
2023-04-10T08:05:25.266Z,17.30
2023-04-10T08:10:30.736Z,15.53
2023-04-10T08:15:36.800Z,13.90
2023-04-10T08:20:47.728Z,11.33
2023-04-10T08:25:55.732Z,11.30
2023-04-10T08:31:00.971Z,10.63
2023-04-10T08:36:09.468Z,9.67
2023-04-10T08:41:15.001Z,8.70
2023-04-10T08:46:20.402Z,10.67
2023-04-10T08:51:34.709Z,11.20
2023-04-10T08:56:45.249Z,12.37
2023-04-10T09:01:51.070Z,14.27
2023-04-10T09:07:00.960Z,13.67
2023-04-10T09:12:08.184Z,13.37
2023-04-10T09:17:19.976Z,13.27
2023-04-10T09:22:36.585Z,12.80
2023-04-10T09:27:44.668Z,11.57
2023-04-10T09:32:50.095Z,11.83
2023-04-10T09:37:57.907Z,10.50
2023-04-10T09:43:03.207Z,11.07
2023-04-10T09:48:11.603Z,14.10
2023-04-10T09:53:22.041Z,12.93
2023-04-10T09:58:28.531Z,12.67
2023-04-10T10:03:35.156Z,11.73
2023-04-10T10:08:43.396Z,10.10
2023-04-10T10:13:57.277Z,9.57
2023-04-10T10:19:06.916Z,8.70
2023-04-10T10:24:16.273Z,9.33
2023-04-10T10:29:22.732Z,9.70
2023-04-10T10:34:28.588Z,9.40
2023-04-10T10:39:45.694Z,11.00
2023-04-10T10:44:57.557Z,11.80
2023-04-10T10:50:05.372Z,10.63
2023-04-10T10:55:40.720Z,11.23
2023-04-10T11:01:13.346Z,8.90
2023-04-10T11:06:20.041Z,9.93
2023-04-10T11:11:29.143Z,9.60
2023-04-10T11:16:51.631Z,8.90
2023-04-10T11:22:06.382Z,8.30
2023-04-10T11:27:53.343Z,8.97
2023-04-10T11:32:58.979Z,12.23
2023-04-10T11:38:18.878Z,9.23
2023-04-10T11:43:26.882Z,16.17
2023-04-10T11:48:32.723Z,8.03
2023-04-10T11:53:37.872Z,9.93
2023-04-10T11:58:45.982Z,7.67
2023-04-10T12:03:51.945Z,8.47
2023-04-10T12:08:58.069Z,9.20
2023-04-10T12:14:06.064Z,11.80
2023-04-10T12:19:11.282Z,10.47
2023-04-10T12:24:17.161Z,10.20
2023-04-10T12:29:30.828Z,9.33
2023-04-10T12:34:36.114Z,9.43
2023-04-10T12:39:42.302Z,13.93
2023-04-10T12:44:57.500Z,8.50
2023-04-10T12:50:11.371Z,9.23
2023-04-10T12:55:21.482Z,7.90
2023-04-10T13:00:29.542Z,8.00
2023-04-10T13:05:34.758Z,7.83
2023-04-10T13:10:42.354Z,7.57
2023-04-10T13:15:50.447Z,7.37
2023-04-10T13:20:56.443Z,6.40
2023-04-10T13:26:02.434Z,7.63
2023-04-10T13:31:12.993Z,6.93
2023-04-10T13:36:18.640Z,7.73
2023-04-10T13:41:24.070Z,7.77
2023-04-10T13:46:31.945Z,7.23
2023-04-10T13:51:37.132Z,7.53
2023-04-10T13:56:42.324Z,7.40
2023-04-10T14:01:52.337Z,7.30
2023-04-10T14:07:00.704Z,7.37
2023-04-10T14:12:05.911Z,5.43
2023-04-10T14:17:14.715Z,6.90
2023-04-10T14:22:19.852Z,6.97
2023-04-10T14:27:25.049Z,6.10
2023-04-10T14:32:33.641Z,5.87
2023-04-10T14:37:39.151Z,6.30
2023-04-10T14:42:44.315Z,6.03
2023-04-10T14:47:52.027Z,6.30
2023-04-10T14:52:59.869Z,5.37
2023-04-10T14:58:04.945Z,5.77
2023-04-10T15:03:12.793Z,6.73
2023-04-10T15:08:18.212Z,5.53
2023-04-10T15:13:24.148Z,5.80
2023-04-10T15:18:32.943Z,8.83
2023-04-10T15:23:53.453Z,5.27
2023-04-10T15:29:06.785Z,5.40
2023-04-10T15:34:14.562Z,5.30
2023-04-10T15:39:20.037Z,5.43
2023-04-10T15:44:25.429Z,5.23
2023-04-10T15:49:38.460Z,5.27
2023-04-10T15:54:47.104Z,5.43
2023-04-10T15:59:58.088Z,6.37
2023-04-10T16:05:09.622Z,6.23
2023-04-10T16:10:15.065Z,5.87
2023-04-10T16:15:20.705Z,5.37
2023-04-10T16:20:31.038Z,5.40
2023-04-10T16:25:36.301Z,5.17
2023-04-10T16:30:41.738Z,6.93
2023-04-10T16:35:50.328Z,6.50
2023-04-10T16:40:55.655Z,6.00
2023-04-10T16:46:01.840Z,6.37
2023-04-10T16:51:12.112Z,6.67
2023-04-10T16:56:17.620Z,6.93
2023-04-10T17:01:26.218Z,6.33
2023-04-10T17:06:35.167Z,7.50
2023-04-10T17:11:53.754Z,6.73
2023-04-10T17:16:59.717Z,7.43
2023-04-10T17:22:16.439Z,7.87
2023-04-10T17:27:22.630Z,7.40
2023-04-10T17:32:28.004Z,8.23
2023-04-10T17:37:38.417Z,7.40
2023-04-10T17:42:44.934Z,7.67
2023-04-10T17:47:51.180Z,7.43
2023-04-10T17:52:59.411Z,7.30
2023-04-10T17:58:04.992Z,7.73
2023-04-10T18:03:11.499Z,7.07
2023-04-10T18:08:19.522Z,8.87
2023-04-10T18:13:25.512Z,8.70
2023-04-10T18:18:31.881Z,7.87
2023-04-10T18:23:40.334Z,8.17
2023-04-10T18:28:46.623Z,7.60
2023-04-10T18:34:07.238Z,7.97
2023-04-10T18:39:16.512Z,9.23
2023-04-10T18:44:21.914Z,8.77
2023-04-10T18:49:27.712Z,9.67
2023-04-10T18:54:38.329Z,10.30
2023-04-10T18:59:43.639Z,8.67
2023-04-10T19:04:49.021Z,9.03
2023-04-10T19:09:58.918Z,9.00
2023-04-10T19:15:04.283Z,10.17
2023-04-10T19:20:11.657Z,10.33
2023-04-10T19:25:19.858Z,9.80
2023-04-10T19:30:26.429Z,10.53
2023-04-10T19:35:31.807Z,10.03
2023-04-10T19:40:39.829Z,9.50
2023-04-10T19:45:45.565Z,9.77
2023-04-10T19:50:51.290Z,10.03
2023-04-10T19:55:59.269Z,9.47
2023-04-10T20:01:09.385Z,10.40
2023-04-10T20:06:14.711Z,9.43
2023-04-10T20:11:23.267Z,9.83
2023-04-10T20:16:28.705Z,10.33
2023-04-10T20:21:34.343Z,10.20
2023-04-10T20:26:45.708Z,9.20
2023-04-10T20:31:51.165Z,9.83
2023-04-10T20:36:56.592Z,9.80
2023-04-10T20:42:04.468Z,9.10
2023-04-10T20:47:09.858Z,8.07
2023-04-10T20:52:15.097Z,8.93
2023-04-10T20:57:23.992Z,8.60
2023-04-10T21:02:31.759Z,7.73
2023-04-10T21:07:37.390Z,8.43
2023-04-10T21:12:46.604Z,7.63
2023-04-10T21:17:51.734Z,7.80
2023-04-10T21:22:57.019Z,7.63
2023-04-10T21:28:05.258Z,8.00
2023-04-10T21:33:10.447Z,7.57
2023-04-10T21:38:15.912Z,6.83
2023-04-10T21:43:24.113Z,8.23
2023-04-10T21:48:29.278Z,7.50
2023-04-10T21:53:34.732Z,7.93
2023-04-10T21:58:42.601Z,7.87
2023-04-10T22:03:47.861Z,7.63
2023-04-10T22:08:53.414Z,7.83
2023-04-10T22:14:12.579Z,8.30
2023-04-10T22:19:21.691Z,8.20
2023-04-10T22:24:26.847Z,8.67
2023-04-10T22:29:34.651Z,8.90
2023-04-10T22:34:40.342Z,8.33
2023-04-10T22:39:45.698Z,9.50
2023-04-10T22:44:54.455Z,9.17
2023-04-10T22:49:59.543Z,8.77
2023-04-10T22:55:04.841Z,8.83
2023-04-10T23:00:18.255Z,9.40
2023-04-10T23:05:23.344Z,8.10
2023-04-10T23:10:28.730Z,9.03
2023-04-10T23:15:37.415Z,8.87
2023-04-10T23:20:42.560Z,9.07
2023-04-10T23:25:50.563Z,8.43
2023-04-10T23:30:58.470Z,8.13
2023-04-10T23:36:03.728Z,8.30
2023-04-10T23:41:10.180Z,8.83
2023-04-10T23:46:20.020Z,8.43
2023-04-10T23:51:25.198Z,8.20
2023-04-10T23:56:35.554Z,7.80
